Dades meteomassalio
Diari Summary for Setembre 27, 2017 Units:  English    Metric   Both
« Previous Day
Next Day »
Diari Semanal Mensual Anual Personalitzat
  Maxima: Minima: Mijana:
Temperatura: TemperatureC °F 8.3 °F 16.8 °F
Rosada: DewpointC °F 6.8 °F 11.2 °F
Humitat: Humidity % 45 % 72 %
Velocitat del vent: WindSpeedKMH mph 0.0 mph 5.8 mph
Racha vent: WindSpeedGustKMH mph - -
Vent:- - SE
Pressio: PressurehPa in 1020.9 in -
Pluja: 0.0 in    
Historical Graphs
 
 
Tabular Data for Setembre 27, 2017
Time Temperature Dew Point Pressure Wind Wind Speed Wind Gust Humidity Rainfall Rate (Hourly) solar Conditions
TemperatureC °F DewpointC °F PressurehPa in Calm     Humidity % HourlyPrecipMM in SolarRadiationWatts/m^2 W/m2 Conditions
00:01 13.9 °F 10.3 °F 1022.9 in Calm     79 % 0.0 in 0.0 W/m2 CLR
00:06 13.3 °F 9.8 °F 1022.9 in Calm     79 % 0.0 in 0.0 W/m2 CLR
00:11 13.3 °F 9.8 °F 1023.2 in Calm     79 % 0.0 in 0.0 W/m2 CLR
00:16 13.3 °F 9.8 °F 1023.2 in Calm     79 % 0.0 in 0.0 W/m2 CLR
00:21 12.8 °F 9.2 °F 1023.2 in Calm     79 % 0.0 in 0.0 W/m2 CLR
00:26 12.8 °F 9.2 °F 1023.2 in Calm     79 % 0.0 in 0.0 W/m2 CLR
00:31 12.8 °F 9.4 °F 1023.2 in Calm     80 % 0.0 in 0.0 W/m2 CLR
00:36 12.2 °F 8.9 °F 1023.2 in Calm     80 % 0.0 in 0.0 W/m2 CLR
00:41 12.2 °F 9.1 °F 1023.2 in Calm     81 % 0.0 in 0.0 W/m2 CLR
00:46 12.2 °F 8.9 °F 1023.2 in Calm     80 % 0.0 in 0.0 W/m2 CLR
00:51 12.2 °F 8.9 °F 1023.2 in Calm     80 % 0.0 in 0.0 W/m2 CLR
00:56 11.7 °F 8.3 °F 1023.2 in Calm     80 % 0.0 in 0.0 W/m2 CLR
01:01 11.7 °F 8.3 °F 1023.2 in Calm     80 % 0.0 in 0.0 W/m2 CLR
01:06 11.7 °F 8.5 °F 1023.2 in Calm     81 % 0.0 in 0.0 W/m2 CLR
01:11 11.7 °F 8.5 °F 1023.2 in Calm     81 % 0.0 in 0.0 W/m2 CLR
01:16 11.7 °F 8.7 °F 1023.2 in Calm     82 % 0.0 in 0.0 W/m2 CLR
01:21 11.7 °F 8.9 °F 1023.2 in Calm     83 % 0.0 in 0.0 W/m2 CLR
01:26 11.7 °F 8.7 °F 1022.9 in Calm     82 % 0.0 in 0.0 W/m2 CLR
01:31 11.1 °F 8.2 °F 1022.9 in Calm     82 % 0.0 in 0.0 W/m2 CLR
01:36 11.1 °F 8.2 °F 1022.9 in Calm     82 % 0.0 in 0.0 W/m2 CLR
01:41 11.1 °F 8.2 °F 1022.9 in Calm     82 % 0.0 in 0.0 W/m2 CLR
01:46 11.1 °F 8.2 °F 1022.9 in Calm     82 % 0.0 in 0.0 W/m2 CLR
01:51 11.1 °F 8.3 °F 1022.9 in Calm     83 % 0.0 in 0.0 W/m2 CLR
01:56 11.1 °F 8.3 °F 1022.9 in Calm     83 % 0.0 in 0.0 W/m2 CLR
02:01 11.7 °F 9.1 °F 1022.9 in Calm     84 % 0.0 in 0.0 W/m2 CLR
02:06 11.7 °F 9.1 °F 1022.9 in Calm     84 % 0.0 in 0.0 W/m2 CLR
02:11 11.7 °F 9.1 °F 1022.9 in Calm     84 % 0.0 in 0.0 W/m2 CLR
02:16 11.1 °F 8.3 °F 1022.9 in Calm     83 % 0.0 in 0.0 W/m2 CLR
02:21 11.1 °F 8.5 °F 1022.9 in Calm     84 % 0.0 in 0.0 W/m2 CLR
02:26 11.1 °F 8.5 °F 1022.9 in Calm     84 % 0.0 in 0.0 W/m2 CLR
02:31 11.1 °F 8.5 °F 1022.9 in Calm     84 % 0.0 in 0.0 W/m2 CLR
02:36 11.1 °F 8.7 °F 1022.9 in Calm     85 % 0.0 in 0.0 W/m2 CLR
02:41 10.6 °F 8.1 °F 1022.9 in Calm     85 % 0.0 in 0.0 W/m2 CLR
02:46 10.6 °F 8.1 °F 1022.6 in Calm     85 % 0.0 in 0.0 W/m2 CLR
02:51 10.6 °F 8.1 °F 1022.9 in Calm     85 % 0.0 in 0.0 W/m2 CLR
02:56 10.6 °F 8.1 °F 1022.6 in Calm     85 % 0.0 in 0.0 W/m2 CLR
03:01 10.6 °F 8.1 °F 1022.9 in Calm     85 % 0.0 in 0.0 W/m2 CLR
03:06 10.0 °F 7.6 °F 1022.6 in Calm     85 % 0.0 in 0.0 W/m2 CLR
03:11 10.0 °F 7.8 °F 1022.6 in Calm     86 % 0.0 in 0.0 W/m2 CLR
03:16 10.0 °F 7.8 °F 1022.6 in Calm     86 % 0.0 in 0.0 W/m2 CLR
03:21 10.0 °F 7.8 °F 1022.6 in Calm     86 % 0.0 in 0.0 W/m2 CLR
03:26 10.0 °F 7.8 °F 1022.6 in Calm     86 % 0.0 in 0.0 W/m2 CLR
03:31 10.0 °F 7.8 °F 1022.6 in Calm     86 % 0.0 in 0.0 W/m2 CLR
03:36 10.0 °F 7.8 °F 1022.6 in Calm     86 % 0.0 in 0.0 W/m2 CLR
03:41 10.0 °F 7.9 °F 1022.6 in Calm     87 % 0.0 in 0.0 W/m2 CLR
03:46 10.0 °F 7.9 °F 1022.6 in Calm     87 % 0.0 in 0.0 W/m2 CLR
03:51 10.0 °F 7.9 °F 1022.6 in Calm     87 % 0.0 in 0.0 W/m2 CLR
03:56 9.4 °F 7.4 °F 1022.6 in Calm     87 % 0.0 in 0.0 W/m2 CLR
04:01 9.4 °F 7.4 °F 1022.6 in Calm     87 % 0.0 in 0.0 W/m2 CLR
04:06 9.4 °F 7.4 °F 1022.6 in Calm     87 % 0.0 in 0.0 W/m2 CLR
04:11 9.4 °F 7.4 °F 1022.6 in Calm     87 % 0.0 in 0.0 W/m2 CLR
04:16 9.4 °F 7.4 °F 1022.6 in Calm     87 % 0.0 in 0.0 W/m2 CLR
04:21 9.4 °F 7.4 °F 1022.2 in Calm     87 % 0.0 in 0.0 W/m2 CLR
04:27 9.4 °F 7.6 °F 1022.6 in Calm     88 % 0.0 in 0.0 W/m2 CLR
04:32 9.4 °F 7.6 °F 1022.6 in Calm     88 % 0.0 in 0.0 W/m2 CLR
04:37 9.4 °F 7.6 °F 1022.6 in Calm     88 % 0.0 in 0.0 W/m2 CLR
04:42 9.4 °F 7.6 °F 1022.6 in Calm     88 % 0.0 in 0.0 W/m2 CLR
04:47 9.4 °F 7.6 °F 1022.2 in Calm     88 % 0.0 in 0.0 W/m2 CLR
04:52 9.4 °F 7.6 °F 1022.2 in Calm     88 % 0.0 in 0.0 W/m2 CLR
04:57 9.4 °F 7.6 °F 1022.6 in Calm     88 % 0.0 in 0.0 W/m2 CLR
05:02 8.9 °F 7.0 °F 1022.6 in Calm     88 % 0.0 in 0.0 W/m2 CLR
05:07 8.9 °F 7.0 °F 1022.6 in Calm     88 % 0.0 in 0.0 W/m2 CLR
05:12 8.9 °F 7.2 °F 1022.6 in Calm     89 % 0.0 in 0.0 W/m2 CLR
05:17 8.9 °F 7.2 °F 1022.6 in Calm     89 % 0.0 in 0.0 W/m2 CLR
05:21 8.9 °F 7.2 °F 1022.6 in Calm     89 % 0.0 in 0.0 W/m2 CLR
05:26 8.9 °F 7.2 °F 1022.6 in Calm     89 % 0.0 in 0.0 W/m2 CLR
05:31 8.9 °F 7.2 °F 1022.6 in Calm     89 % 0.0 in 0.0 W/m2 CLR
05:36 8.9 °F 7.2 °F 1022.6 in Calm     89 % 0.0 in 0.0 W/m2 CLR
05:41 8.9 °F 7.2 °F 1022.6 in Calm     89 % 0.0 in 0.0 W/m2 CLR
05:46 9.4 °F 7.7 °F 1022.6 in Calm     89 % 0.0 in 0.0 W/m2 CLR
05:51 9.4 °F 7.7 °F 1022.6 in Calm     89 % 0.0 in 0.0 W/m2 CLR
05:56 8.9 °F 7.2 °F 1022.6 in Calm     89 % 0.0 in 0.0 W/m2 CLR
06:01 8.9 °F 7.2 °F 1022.6 in Calm     89 % 0.0 in 0.0 W/m2 CLR
06:06 8.9 °F 7.2 °F 1022.6 in Calm     89 % 0.0 in 0.0 W/m2 CLR
06:11 8.9 °F 7.3 °F 1022.6 in Calm     90 % 0.0 in 0.0 W/m2 CLR
06:16 9.4 °F 7.9 °F 1022.9 in Calm     90 % 0.0 in 0.0 W/m2 CLR
06:21 8.9 °F 7.3 °F 1022.9 in Calm     90 % 0.0 in 0.0 W/m2 CLR
06:26 8.9 °F 7.3 °F 1022.9 in Calm     90 % 0.0 in 0.0 W/m2 CLR
06:31 8.9 °F 7.3 °F 1022.9 in Calm     90 % 0.0 in 0.0 W/m2 CLR
06:36 8.9 °F 7.3 °F 1022.9 in Calm     90 % 0.0 in 0.0 W/m2 CLR
06:41 8.9 °F 7.3 °F 1022.9 in Calm     90 % 0.0 in 0.0 W/m2 CLR
06:46 8.9 °F 7.3 °F 1022.9 in Calm     90 % 0.0 in 0.0 W/m2 CLR
06:51 8.9 °F 7.3 °F 1022.9 in Calm     90 % 0.0 in 0.0 W/m2 CLR
06:56 8.9 °F 7.3 °F 1022.9 in Calm     90 % 0.0 in 0.0 W/m2 CLR
07:01 8.3 °F 6.8 °F 1022.9 in Calm     90 % 0.0 in 0.0 W/m2 CLR
07:06 8.3 °F 6.8 °F 1022.9 in Calm     90 % 0.0 in 0.0 W/m2 CLR
07:11 8.3 °F 6.9 °F 1022.9 in Calm     91 % 0.0 in 0.0 W/m2 CLR
07:16 8.3 °F 6.8 °F 1022.9 in Calm     90 % 0.0 in 0.0 W/m2 CLR
07:21 8.3 °F 6.8 °F 1022.9 in Calm     90 % 0.0 in 0.0 W/m2 CLR
07:26 8.3 °F 6.8 °F 1022.9 in Calm     90 % 0.0 in 0.0 W/m2 CLR
07:31 8.3 °F 6.9 °F 1023.2 in Calm     91 % 0.0 in 0.0 W/m2 CLR
07:36 8.3 °F 6.9 °F 1023.2 in Calm     91 % 0.0 in 0.0 W/m2 CLR
07:41 8.3 °F 6.9 °F 1023.2 in Calm     91 % 0.0 in 0.0 W/m2 CLR
07:46 8.3 °F 6.9 °F 1023.2 in Calm     91 % 0.0 in 0.0 W/m2 OVC
07:51 8.3 °F 6.9 °F 1023.2 in Calm     91 % 0.0 in 0.0 W/m2 OVC
07:56 8.3 °F 6.8 °F 1023.2 in Calm     90 % 0.0 in 5.0 W/m2 OVC
08:01 8.3 °F 6.9 °F 1023.2 in Calm     91 % 0.0 in 7.0 W/m2 BKN
08:06 8.3 °F 6.9 °F 1023.2 in Calm     91 % 0.0 in 11.0 W/m2 BKN
08:11 8.3 °F 6.9 °F 1023.2 in Calm     91 % 0.0 in 14.0 W/m2 BKN
08:16 8.3 °F 6.9 °F 1023.2 in Calm     91 % 0.0 in 19.0 W/m2 BKN
08:21 8.3 °F 6.9 °F 1023.6 in Calm     91 % 0.0 in 26.0 W/m2 BKN
08:26 8.3 °F 6.9 °F 1023.6 in Calm     91 % 0.0 in 37.0 W/m2 BKN
08:31 8.9 °F 7.5 °F 1023.6 in Calm     91 % 0.0 in 49.0 W/m2 SCT
08:36 8.9 °F 7.5 °F 1023.6 in Calm     91 % 0.0 in 54.0 W/m2 SCT
08:41 9.4 °F 8.1 °F 1023.6 in Calm     91 % 0.0 in 74.0 W/m2 FEW
08:46 9.4 °F 8.1 °F 1023.6 in Calm     91 % 0.0 in 76.0 W/m2 FEW
08:47 9.4 °F 8.1 °F 1023.6 in Calm     91 % 0.0 in 76.0 W/m2 FEW
08:52 10.0 °F 8.4 °F 1023.6 in Calm     90 % 0.0 in 100.0 W/m2 CLR
08:57 10.0 °F 8.4 °F 1023.6 in Calm     90 % 0.0 in 98.0 W/m2 CLR
09:02 10.0 °F 8.4 °F 1023.6 in Calm     90 % 0.0 in 100.0 W/m2 CLR
09:07 10.6 °F 9.0 °F 1023.6 in Calm     90 % 0.0 in 123.0 W/m2 CLR
09:12 10.6 °F 8.8 °F 1023.6 in Calm     89 % 0.0 in 160.0 W/m2 CLR
09:17 11.1 °F 9.4 °F 1023.6 in Calm     89 % 0.0 in 181.0 W/m2 CLR
09:20 11.1 °F 9.2 °F 1023.6 in Calm     88 % 0.0 in 193.0 W/m2 CLR
09:25 11.1 °F 8.8 °F 1023.6 in Calm     86 % 0.0 in 211.0 W/m2 CLR
09:30 11.7 °F 9.2 °F 1023.9 in Calm     85 % 0.0 in 225.0 W/m2 CLR
09:35 11.7 °F 8.9 °F 1023.9 in Calm     83 % 0.0 in 241.0 W/m2 CLR
09:40 12.2 °F 9.4 °F 1023.9 in Calm     83 % 0.0 in 258.0 W/m2 CLR
09:45 12.8 °F 9.8 °F 1023.9 in Calm     82 % 0.0 in 272.0 W/m2 CLR
09:50 12.8 °F 9.6 °F 1023.9 in Calm     81 % 0.0 in 288.0 W/m2 CLR
09:55 12.8 °F 9.4 °F 1023.9 in Calm     80 % 0.0 in 304.0 W/m2 CLR
10:00 13.3 °F 9.6 °F 1023.9 in Calm     78 % 0.0 in 318.0 W/m2 CLR
10:05 13.9 °F 9.7 °F 1023.9 in Calm     76 % 0.0 in 336.0 W/m2 CLR
10:10 13.9 °F 9.6 °F 1023.9 in Calm     75 % 0.0 in 350.0 W/m2 CLR
10:15 14.4 °F 9.9 °F 1023.9 in Calm     74 % 0.0 in 364.0 W/m2 CLR
10:20 15.0 °F 10.4 °F 1023.9 in Calm     74 % 0.0 in 378.0 W/m2 CLR
10:25 15.6 °F 10.7 °F 1023.9 in Calm     73 % 0.0 in 394.0 W/m2 CLR
10:30 16.1 °F 11.1 °F 1023.9 in Calm     72 % 0.0 in 408.0 W/m2 CLR
10:35 16.7 °F 11.6 °F 1023.9 in Calm     72 % 0.0 in 422.0 W/m2 CLR
10:40 17.2 °F 11.5 °F 1024.3 in Calm     69 % 0.0 in 436.0 W/m2 CLR
10:45 17.8 °F 12.0 °F 1024.3 in Calm     69 % 0.0 in 446.0 W/m2 CLR
10:50 18.3 °F 12.3 °F 1024.3 in Calm     68 % 0.0 in 461.0 W/m2 CLR
10:55 18.9 °F 12.6 °F 1024.3 in Calm     67 % 0.0 in 473.0 W/m2 CLR
11:00 18.9 °F 12.6 °F 1024.3 in Calm     67 % 0.0 in 485.0 W/m2 CLR
11:05 19.4 °F 12.9 °F 1023.9 in North 5.6 mph 5.6 mph 66 % 0.0 in 501.0 W/m2 CLR
11:10 20.0 °F 13.2 °F 1023.9 in North 5.6 mph 5.6 mph 65 % 0.0 in 513.0 W/m2 CLR
11:15 20.6 °F 13.7 °F 1023.9 in North 7.4 mph 7.4 mph 65 % 0.0 in 524.0 W/m2 CLR
11:20 20.6 °F 13.5 °F 1023.9 in NW 7.4 mph 7.4 mph 64 % 0.0 in 533.0 W/m2 CLR
11:25 20.6 °F 13.5 °F 1023.9 in Calm     64 % 0.0 in 545.0 W/m2 CLR
11:30 20.6 °F 13.5 °F 1023.9 in NNW 5.6 mph 5.6 mph 64 % 0.0 in 561.0 W/m2 CLR
11:35 20.6 °F 13.3 °F 1023.9 in NNW 5.6 mph 5.6 mph 63 % 0.0 in 570.0 W/m2 CLR
11:40 21.1 °F 13.8 °F 1023.9 in NNW 5.6 mph 5.6 mph 63 % 0.0 in 578.0 W/m2 CLR
11:45 21.7 °F 14.1 °F 1023.9 in NW 1.9 mph 1.9 mph 62 % 0.0 in 589.0 W/m2 CLR
11:50 21.7 °F 13.8 °F 1023.9 in Calm     61 % 0.0 in 601.0 W/m2 CLR
11:55 21.7 °F 13.8 °F 1023.9 in NNE 6.4 mph 6.4 mph 61 % 0.0 in 612.0 W/m2 CLR
12:00 21.7 °F 13.8 °F 1023.9 in NW 1.9 mph 1.9 mph 61 % 0.0 in 621.0 W/m2 CLR
12:05 22.2 °F 14.3 °F 1023.9 in Calm     61 % 0.0 in 629.0 W/m2 CLR
12:10 21.7 °F 13.3 °F 1023.6 in NNE 3.7 mph 3.7 mph 59 % 0.0 in 635.0 W/m2 CLR
12:15 22.2 °F 13.8 °F 1023.6 in ENE 1.9 mph 1.9 mph 59 % 0.0 in 645.0 W/m2 CLR
12:20 22.2 °F 14.1 °F 1023.6 in NE 11.1 mph 11.1 mph 60 % 0.0 in 654.0 W/m2 CLR
12:25 22.8 °F 14.3 °F 1023.6 in NNE 5.6 mph 5.6 mph 59 % 0.0 in 659.0 W/m2 CLR
12:30 22.8 °F 14.3 °F 1023.6 in NNE 5.6 mph 5.6 mph 59 % 0.0 in 661.0 W/m2 CLR
12:35 23.3 °F 14.9 °F 1023.6 in Calm     59 % 0.0 in 679.0 W/m2 CLR
12:40 23.9 °F 15.1 °F 1023.6 in NNW 1.9 mph   58 % 0.0 in 684.0 W/m2 CLR
12:45 23.3 °F 14.3 °F 1023.6 in Calm     57 % 0.0 in 689.0 W/m2 CLR
12:50 23.9 °F 14.8 °F 1023.2 in NNW 3.7 mph 3.7 mph 57 % 0.0 in 707.0 W/m2 CLR
12:55 23.9 °F 14.6 °F 1023.2 in NE 7.4 mph 7.4 mph 56 % 0.0 in 722.0 W/m2 CLR
13:00 23.9 °F 14.0 °F 1023.2 in Calm     54 % 0.0 in 714.0 W/m2 CLR
13:05 23.9 °F 14.3 °F 1023.2 in East 9.7 mph 9.7 mph 55 % 0.0 in 707.0 W/m2 CLR
13:10 24.4 °F 15.1 °F 1023.2 in Calm     56 % 0.0 in 693.0 W/m2 CLR
13:15 23.9 °F 14.3 °F 1022.9 in WNW 3.7 mph 3.7 mph 55 % 0.0 in 712.0 W/m2 CLR
13:20 23.9 °F 14.3 °F 1022.9 in North 5.6 mph 5.6 mph 55 % 0.0 in 717.0 W/m2 CLR
13:25 24.4 °F 14.2 °F 1022.9 in Calm     53 % 0.0 in 719.0 W/m2 CLR
13:30 24.4 °F 14.2 °F 1022.9 in Calm     53 % 0.0 in 715.0 W/m2 CLR
13:35 25.0 °F 14.2 °F 1022.9 in North 13.0 mph 13.0 mph 51 % 0.0 in 728.0 W/m2 CLR
13:40 24.4 °F 14.2 °F 1022.9 in Calm     53 % 0.0 in 724.0 W/m2 CLR
13:45 25.6 °F 14.9 °F 1022.9 in West 1.6 mph   52 % 0.0 in 721.0 W/m2 CLR
13:50 25.0 °F 14.2 °F 1022.6 in Calm     51 % 0.0 in 724.0 W/m2 CLR
13:55 25.0 °F 13.8 °F 1022.6 in North 13.0 mph 13.0 mph 50 % 0.0 in 724.0 W/m2 CLR
14:00 25.0 °F 13.6 °F 1022.6 in WNW 9.3 mph 9.3 mph 49 % 0.0 in 726.0 W/m2 CLR
14:05 25.0 °F 13.8 °F 1022.6 in NNW 11.1 mph 11.1 mph 50 % 0.0 in 726.0 W/m2 CLR
14:10 25.0 °F 13.8 °F 1022.6 in NNE 18.5 mph 18.5 mph 50 % 0.0 in 724.0 W/m2 CLR
14:15 25.0 °F 14.2 °F 1022.2 in Calm     51 % 0.0 in 722.0 W/m2 CLR
14:20 25.0 °F 13.6 °F 1022.2 in NW 3.2 mph 3.2 mph 49 % 0.0 in 729.0 W/m2 CLR
14:25 25.0 °F 13.2 °F 1022.2 in NW 14.8 mph 14.8 mph 48 % 0.0 in 728.0 W/m2 CLR
14:30 25.6 °F 13.7 °F 1022.2 in WNW 7.4 mph 7.4 mph 48 % 0.0 in 722.0 W/m2 CLR
14:35 26.1 °F 14.2 °F 1022.2 in Calm     48 % 0.0 in 722.0 W/m2 CLR
14:40 26.1 °F 13.2 °F 1022.2 in NW 3.7 mph   45 % 0.0 in 726.0 W/m2 CLR
14:45 26.1 °F 13.6 °F 1022.2 in NNE 8.0 mph 8.0 mph 46 % 0.0 in 726.0 W/m2 CLR
14:50 26.7 °F 13.7 °F 1021.9 in WNW 16.7 mph 16.7 mph 45 % 0.0 in 721.0 W/m2 CLR
14:55 26.1 °F 13.2 °F 1021.9 in NW 13.0 mph 13.0 mph 45 % 0.0 in 708.0 W/m2 CLR
15:00 25.6 °F 12.7 °F 1021.9 in NW 7.4 mph 7.4 mph 45 % 0.0 in 694.0 W/m2 CLR
15:05 26.1 °F 13.2 °F 1021.9 in NNE 18.5 mph 18.5 mph 45 % 0.0 in 687.0 W/m2 CLR
15:10 26.1 °F 13.6 °F 1021.9 in NE 18.5 mph 18.5 mph 46 % 0.0 in 686.0 W/m2 CLR
15:15 26.1 °F 13.9 °F 1021.9 in ENE 18.5 mph 18.5 mph 47 % 0.0 in 684.0 W/m2 CLR
15:20 26.7 °F 14.4 °F 1021.9 in NNE 14.8 mph 14.8 mph 47 % 0.0 in 670.0 W/m2 CLR
15:26 26.7 °F 14.4 °F 1021.9 in East 4.8 mph 4.8 mph 47 % 0.0 in 656.0 W/m2 CLR
15:31 27.2 °F 14.3 °F 1021.9 in East 18.5 mph 18.5 mph 45 % 0.0 in 656.0 W/m2 CLR
15:36 26.7 °F 14.1 °F 1021.6 in North 14.8 mph 14.8 mph 46 % 0.0 in 650.0 W/m2 CLR
15:41 26.1 °F 13.9 °F 1021.6 in NNW 16.1 mph 16.1 mph 47 % 0.0 in 640.0 W/m2 CLR
15:46 26.7 °F 14.1 °F 1021.6 in North 18.5 mph 18.5 mph 46 % 0.0 in 628.0 W/m2 CLR
15:51 26.1 °F 13.6 °F 1021.6 in North 16.7 mph 16.7 mph 46 % 0.0 in 633.0 W/m2 CLR
15:56 25.6 °F 13.1 °F 1021.6 in NW 14.8 mph 14.8 mph 46 % 0.0 in 603.0 W/m2 CLR
16:01 26.1 °F 13.9 °F 1021.6 in NNW 9.3 mph 9.3 mph 47 % 0.0 in 594.0 W/m2 CLR
16:06 26.1 °F 13.6 °F 1021.6 in NW 16.7 mph 16.7 mph 46 % 0.0 in 585.0 W/m2 CLR
16:11 26.1 °F 13.9 °F 1021.6 in NNW 11.3 mph 11.3 mph 47 % 0.0 in 575.0 W/m2 CLR
16:16 26.7 °F 14.4 °F 1021.6 in NNW 18.5 mph 18.5 mph 47 % 0.0 in 585.0 W/m2 CLR
16:21 26.7 °F 14.4 °F 1021.2 in NW 9.3 mph 9.3 mph 47 % 0.0 in 584.0 W/m2 CLR
16:26 26.7 °F 14.4 °F 1021.2 in ENE 24.1 mph 24.1 mph 47 % 0.0 in 554.0 W/m2 CLR
16:31 25.6 °F 13.7 °F 1021.2 in ENE 13.0 mph 13.0 mph 48 % 0.0 in 125.0 W/m2 CLR
16:36 25.0 °F 13.8 °F 1021.2 in NE 16.7 mph 16.7 mph 50 % 0.0 in 165.0 W/m2 CLR
16:41 25.6 °F 14.7 °F 1021.2 in NE 16.7 mph 16.7 mph 51 % 0.0 in 209.0 W/m2 CLR
16:46 26.1 °F 15.2 °F 1021.2 in East 13.0 mph 13.0 mph 51 % 0.0 in 527.0 W/m2 CLR
16:51 26.1 °F 15.2 °F 1021.2 in NE 20.4 mph 20.4 mph 51 % 0.0 in 503.0 W/m2 CLR
16:56 26.1 °F 15.2 °F 1021.2 in NNE 14.8 mph 14.8 mph 51 % 0.0 in 489.0 W/m2 CLR
17:01 26.1 °F 15.2 °F 1021.2 in ENE 18.5 mph 18.5 mph 51 % 0.0 in 459.0 W/m2 CLR
17:06 26.7 °F 15.7 °F 1021.2 in NE 18.5 mph 18.5 mph 51 % 0.0 in 438.0 W/m2 CLR
17:11 26.1 °F 15.2 °F 1021.2 in ESE 18.5 mph 18.5 mph 51 % 0.0 in 410.0 W/m2 CLR
17:16 26.1 °F 15.2 °F 1021.2 in ENE 14.8 mph 14.8 mph 51 % 0.0 in 392.0 W/m2 CLR
17:21 26.1 °F 15.5 °F 1021.2 in NE 20.4 mph 20.4 mph 52 % 0.0 in 387.0 W/m2 CLR
17:26 26.1 °F 15.5 °F 1021.2 in East 16.7 mph 16.7 mph 52 % 0.0 in 373.0 W/m2 CLR
17:31 25.6 °F 14.9 °F 1021.2 in ENE 18.5 mph 18.5 mph 52 % 0.0 in 359.0 W/m2 CLR
17:36 25.6 °F 15.3 °F 1021.2 in ENE 20.4 mph 20.4 mph 53 % 0.0 in 341.0 W/m2 CLR
17:41 25.6 °F 15.3 °F 1021.2 in ENE 22.2 mph 22.2 mph 53 % 0.0 in 327.0 W/m2 CLR
17:46 25.6 °F 15.6 °F 1021.2 in NE 18.5 mph 18.5 mph 54 % 0.0 in 309.0 W/m2 CLR
17:51 25.0 °F 15.3 °F 1020.9 in NE 20.4 mph 20.4 mph 55 % 0.0 in 295.0 W/m2 CLR
17:56 25.0 °F 15.1 °F 1021.2 in NE 24.1 mph 24.1 mph 54 % 0.0 in 279.0 W/m2 CLR
18:01 25.0 °F 15.3 °F 1021.2 in ENE 24.1 mph 24.1 mph 55 % 0.0 in 260.0 W/m2 CLR
18:06 25.0 °F 15.3 °F 1021.2 in NE 25.9 mph 25.9 mph 55 % 0.0 in 246.0 W/m2 CLR
18:11 24.4 °F 14.8 °F 1021.2 in East 22.2 mph 22.2 mph 55 % 0.0 in 230.0 W/m2 CLR
18:16 24.4 °F 15.1 °F 1021.2 in NNE 19.3 mph 19.3 mph 56 % 0.0 in 216.0 W/m2 CLR
18:21 24.4 °F 15.4 °F 1021.2 in NE 22.5 mph 22.5 mph 57 % 0.0 in 193.0 W/m2 CLR
18:26 23.9 °F 14.8 °F 1021.6 in ENE 20.4 mph 20.4 mph 57 % 0.0 in 174.0 W/m2 CLR
18:27 23.9 °F 14.8 °F 1021.6 in NE 18.5 mph 18.5 mph 57 % 0.0 in 171.0 W/m2 CLR
18:32 23.9 °F 15.1 °F 1021.6 in ENE 18.5 mph 18.5 mph 58 % 0.0 in 156.0 W/m2 CLR
18:37 23.9 °F 15.4 °F 1021.6 in ENE 18.5 mph 18.5 mph 59 % 0.0 in 141.0 W/m2 CLR
18:42 23.9 °F 15.4 °F 1021.6 in ENE 19.3 mph 19.3 mph 59 % 0.0 in 125.0 W/m2 CLR
18:47 23.3 °F 15.1 °F 1021.6 in ENE 25.7 mph 25.7 mph 60 % 0.0 in 107.0 W/m2 CLR
18:52 23.3 °F 15.1 °F 1021.6 in NE 20.4 mph 20.4 mph 60 % 0.0 in 91.0 W/m2 CLR
18:57 23.3 °F 15.1 °F 1021.6 in ENE 20.4 mph 20.4 mph 60 % 0.0 in 79.0 W/m2 FEW
19:02 23.3 °F 15.4 °F 1021.6 in East 20.9 mph 20.9 mph 61 % 0.0 in 58.0 W/m2 SCT
19:07 22.8 °F 15.1 °F 1021.6 in ENE 24.1 mph 24.1 mph 62 % 0.0 in 46.0 W/m2 BKN
19:12 22.8 °F 15.1 °F 1021.6 in NE 22.2 mph 22.2 mph 62 % 0.0 in 32.0 W/m2 BKN
19:17 22.2 °F 14.8 °F 1021.6 in ENE 14.5 mph 14.5 mph 63 % 0.0 in 25.0 W/m2 BKN
19:22 22.2 °F 14.8 °F 1021.9 in ENE 14.8 mph 14.8 mph 63 % 0.0 in 16.0 W/m2 BKN
19:27 22.2 °F 15.1 °F 1021.9 in ENE 20.4 mph 20.4 mph 64 % 0.0 in 11.0 W/m2 BKN
19:32 21.7 °F 14.6 °F 1021.9 in NE 8.0 mph 8.0 mph 64 % 0.0 in 7.0 W/m2 BKN
19:37 21.7 °F 14.6 °F 1021.9 in ENE 3.7 mph   64 % 0.0 in 5.0 W/m2 OVC
19:42 21.1 °F 14.3 °F 1021.9 in ENE 13.0 mph 13.0 mph 65 % 0.0 in 5.0 W/m2 OVC
19:47 20.6 °F 14.0 °F 1021.9 in ENE 5.6 mph 5.6 mph 66 % 0.0 in 0.0 W/m2 OVC
19:48 20.6 °F 14.0 °F 1022.2 in ENE 5.6 mph 5.6 mph 66 % 0.0 in 0.0 W/m2 OVC
19:53 20.6 °F 14.0 °F 1022.2 in East 1.9 mph 1.9 mph 66 % 0.0 in 0.0 W/m2 OVC
19:58 20.6 °F 14.2 °F 1022.2 in ENE 11.1 mph 11.1 mph 67 % 0.0 in 0.0 W/m2 OVC
20:03 20.6 °F 14.2 °F 1022.2 in East 9.3 mph 9.3 mph 67 % 0.0 in 0.0 W/m2 CLR
20:08 20.0 °F 13.7 °F 1022.2 in East 11.3 mph 11.3 mph 67 % 0.0 in 0.0 W/m2 CLR
20:13 19.4 °F 13.2 °F 1022.2 in East 13.0 mph 13.0 mph 67 % 0.0 in 0.0 W/m2 CLR
20:18 19.4 °F 13.4 °F 1022.2 in East 13.0 mph 13.0 mph 68 % 0.0 in 0.0 W/m2 CLR
20:23 18.9 °F 12.8 °F 1022.6 in ENE 4.8 mph 4.8 mph 68 % 0.0 in 0.0 W/m2 CLR
20:28 18.9 °F 12.8 °F 1022.6 in East 8.0 mph 8.0 mph 68 % 0.0 in 0.0 W/m2 CLR
20:33 18.9 °F 13.1 °F 1022.6 in East 1.9 mph   69 % 0.0 in 0.0 W/m2 CLR
20:37 18.3 °F 12.6 °F 1022.6 in ENE 11.3 mph 11.3 mph 69 % 0.0 in 0.0 W/m2 CLR
20:42 18.3 °F 12.8 °F 1022.6 in ENE 9.3 mph 9.3 mph 70 % 0.0 in 0.0 W/m2 CLR
20:47 17.8 °F 12.4 °F 1022.9 in East 13.0 mph 13.0 mph 71 % 0.0 in 0.0 W/m2 CLR
20:52 17.8 °F 12.4 °F 1022.9 in ENE 7.4 mph 7.4 mph 71 % 0.0 in 0.0 W/m2 CLR
20:57 17.8 °F 12.4 °F 1022.9 in ENE 12.9 mph 12.9 mph 71 % 0.0 in 0.0 W/m2 CLR
21:02 17.2 °F 12.1 °F 1022.9 in ENE 13.0 mph 13.0 mph 72 % 0.0 in 0.0 W/m2 CLR
21:07 17.2 °F 12.1 °F 1022.9 in ENE 11.1 mph 11.1 mph 72 % 0.0 in 0.0 W/m2 CLR
21:12 17.2 °F 12.1 °F 1023.2 in Calm     72 % 0.0 in 0.0 W/m2 CLR
21:17 17.8 °F 12.9 °F 1023.2 in Calm     73 % 0.0 in 0.0 W/m2 CLR
21:22 17.8 °F 12.9 °F 1023.2 in Calm     73 % 0.0 in 0.0 W/m2 CLR
21:27 17.8 °F 12.9 °F 1023.2 in Calm     73 % 0.0 in 0.0 W/m2 CLR
21:33 17.8 °F 12.9 °F 1023.2 in Calm     73 % 0.0 in 0.0 W/m2 CLR
21:38 17.2 °F 12.3 °F 1023.2 in NE 5.6 mph 5.6 mph 73 % 0.0 in 0.0 W/m2 CLR
21:43 17.2 °F 12.6 °F 1023.2 in ENE 11.1 mph 11.1 mph 74 % 0.0 in 0.0 W/m2 CLR
21:48 16.7 °F 12.0 °F 1023.2 in ENE 16.7 mph 16.7 mph 74 % 0.0 in 0.0 W/m2 CLR
21:52 16.7 °F 12.0 °F 1023.6 in East 18.5 mph 18.5 mph 74 % 0.0 in 0.0 W/m2 CLR
21:58 16.7 °F 12.0 °F 1023.6 in ENE 13.0 mph 13.0 mph 74 % 0.0 in 0.0 W/m2 CLR
22:03 16.7 °F 12.0 °F 1023.6 in ENE 11.3 mph 11.3 mph 74 % 0.0 in 0.0 W/m2 CLR
22:08 17.2 °F 12.7 °F 1023.6 in ENE 13.0 mph 13.0 mph 75 % 0.0 in 0.0 W/m2 CLR
22:09 17.2 °F 12.7 °F 1023.6 in ENE 9.3 mph 9.3 mph 75 % 0.0 in 0.0 W/m2 CLR
22:14 17.2 °F 12.7 °F 1023.6 in East 14.8 mph 14.8 mph 75 % 0.0 in 0.0 W/m2 CLR
22:19 17.2 °F 12.7 °F 1023.6 in East 11.1 mph 11.1 mph 75 % 0.0 in 0.0 W/m2 CLR
22:24 17.2 °F 12.7 °F 1023.6 in East 13.0 mph 13.0 mph 75 % 0.0 in 0.0 W/m2 CLR
22:29 17.2 °F 12.7 °F 1023.9 in East 11.3 mph 11.3 mph 75 % 0.0 in 0.0 W/m2 CLR
22:34 16.7 °F 12.2 °F 1023.6 in ENE 14.8 mph 14.8 mph 75 % 0.0 in 0.0 W/m2 CLR
22:40 16.7 °F 12.2 °F 1023.6 in East 16.7 mph 16.7 mph 75 % 0.0 in 0.0 W/m2 CLR
22:45 16.7 °F 12.4 °F 1023.6 in East 16.7 mph 16.7 mph 76 % 0.0 in 0.0 W/m2 CLR
22:50 16.7 °F 12.4 °F 1023.6 in East 14.8 mph 14.8 mph 76 % 0.0 in 0.0 W/m2 CLR
22:55 16.7 °F 12.2 °F 1023.6 in ENE 14.8 mph 14.8 mph 75 % 0.0 in 0.0 W/m2 CLR
23:00 16.7 °F 12.2 °F 1023.6 in ENE 11.1 mph 11.1 mph 75 % 0.0 in 0.0 W/m2 CLR
23:02 16.7 °F 12.2 °F 1023.6 in ENE 13.0 mph 13.0 mph 75 % 0.0 in 0.0 W/m2 CLR
23:07 16.7 °F 12.2 °F 1023.6 in ENE 14.8 mph 14.8 mph 75 % 0.0 in 0.0 W/m2 CLR
23:12 16.7 °F 12.2 °F 1023.9 in East 5.6 mph   75 % 0.0 in 0.0 W/m2 CLR
23:17 16.1 °F 11.7 °F 1023.9 in Calm     75 % 0.0 in 0.0 W/m2 CLR
23:22 16.1 °F 11.7 °F 1023.9 in Calm     75 % 0.0 in 0.0 W/m2 CLR
23:27 16.1 °F 11.9 °F 1023.9 in Calm     76 % 0.0 in 0.0 W/m2 CLR
23:32 16.1 °F 11.9 °F 1023.9 in Calm     76 % 0.0 in 0.0 W/m2 CLR
23:37 16.1 °F 11.9 °F 1023.9 in Calm     76 % 0.0 in 0.0 W/m2 CLR
23:42 15.6 °F 11.3 °F 1023.9 in Calm     76 % 0.0 in 0.0 W/m2 CLR
23:47 15.6 °F 11.6 °F 1023.9 in Calm     77 % 0.0 in 0.0 W/m2 CLR
23:52 15.0 °F 11.0 °F 1023.9 in Calm     77 % 0.0 in 0.0 W/m2 CLR
23:57 15.6 °F 11.7 °F 1023.9 in Calm     78 % 0.0 in 0.0 W/m2 CLR
Lo Temps de Massalio
Compliments of Weather Underground - 1.25 mb